createdAt,value
2023-02-09T00:02:00.569Z,37.60
2023-02-09T00:04:25.775Z,35.70
2023-02-09T00:06:50.410Z,39.17
2023-02-09T00:09:15.193Z,27.55
2023-02-09T00:11:58.840Z,36.83
2023-02-09T00:14:23.563Z,37.13
2023-02-09T00:16:51.085Z,23.13
2023-02-09T00:19:16.439Z,28.92
2023-02-09T00:21:41.815Z,22.55
2023-02-09T00:24:07.465Z,26.95
2023-02-09T00:26:32.121Z,29.42
2023-02-09T00:28:58.177Z,29.13
2023-02-09T00:31:22.951Z,26.83
2023-02-09T00:33:47.667Z,23.42
2023-02-09T00:36:14.355Z,24.88
2023-02-09T00:38:39.060Z,22.73
2023-02-09T00:41:04.158Z,25.52
2023-02-09T00:43:29.095Z,24.80
2023-02-09T00:45:55.412Z,28.50
2023-02-09T00:48:20.407Z,32.22
2023-02-09T00:50:45.491Z,48.88
2023-02-09T00:53:10.371Z,32.83
2023-02-09T00:55:38.907Z,39.22
2023-02-09T00:58:04.946Z,33.38
2023-02-09T01:00:29.921Z,60.58
2023-02-09T01:02:57.650Z,35.78
2023-02-09T01:05:22.858Z,23.95
2023-02-09T01:07:47.472Z,27.23
2023-02-09T01:10:12.475Z,27.45
2023-02-09T01:12:39.851Z,30.73
2023-02-09T01:15:04.598Z,24.55
2023-02-09T01:17:29.363Z,28.33
2023-02-09T01:19:56.675Z,15.77
2023-02-09T01:22:21.120Z,22.98
2023-02-09T01:24:46.648Z,21.90
2023-02-09T01:27:12.667Z,21.33
2023-02-09T01:29:37.452Z,18.60
2023-02-09T01:32:02.202Z,20.42
2023-02-09T01:34:26.962Z,18.75
2023-02-09T01:36:52.878Z,19.75
2023-02-09T01:39:18.386Z,20.35
2023-02-09T01:41:43.585Z,17.95
2023-02-09T01:44:29.574Z,19.85
2023-02-09T01:46:54.293Z,18.48
2023-02-09T01:49:21.543Z,20.40
2023-02-09T01:51:50.246Z,19.73
2023-02-09T01:54:22.497Z,16.15
2023-02-09T01:56:52.564Z,25.50
2023-02-09T01:59:18.056Z,19.25
2023-02-09T02:01:44.580Z,21.52
2023-02-09T02:04:09.806Z,19.08
2023-02-09T02:06:34.547Z,22.08
2023-02-09T02:09:03.545Z,19.45
2023-02-09T02:11:29.969Z,19.07
2023-02-09T02:13:54.613Z,20.85
2023-02-09T02:16:51.867Z,23.67
2023-02-09T02:19:45.797Z,26.98
2023-02-09T02:22:36.692Z,22.83
2023-02-09T02:25:30.366Z,22.30
2023-02-09T02:28:10.633Z,24.63
2023-02-09T02:30:59.487Z,28.33
2023-02-09T02:33:37.396Z,25.83
2023-02-09T02:36:07.971Z,27.10
2023-02-09T02:38:37.528Z,28.33
2023-02-09T02:41:14.114Z,26.27
2023-02-09T02:43:45.505Z,33.72
2023-02-09T02:46:16.907Z,33.25
2023-02-09T02:48:47.806Z,33.65
2023-02-09T02:51:18.435Z,26.33
2023-02-09T02:53:48.820Z,30.05
2023-02-09T02:56:19.314Z,27.05
2023-02-09T02:58:47.708Z,26.98
2023-02-09T03:01:16.206Z,29.20
2023-02-09T03:03:44.625Z,28.55
2023-02-09T03:06:11.672Z,31.58
2023-02-09T03:08:50.446Z,27.42
2023-02-09T03:11:15.467Z,22.08
2023-02-09T03:13:47.048Z,24.17
2023-02-09T03:16:21.928Z,24.80
2023-02-09T03:19:00.549Z,31.42
2023-02-09T03:21:33.608Z,23.50
2023-02-09T03:24:04.683Z,29.00
2023-02-09T03:26:34.330Z,28.67
2023-02-09T03:29:00.392Z,28.58
2023-02-09T03:31:26.138Z,32.28
2023-02-09T03:33:53.337Z,25.25
2023-02-09T03:36:19.664Z,30.48
2023-02-09T03:38:44.567Z,27.23
2023-02-09T03:41:09.095Z,30.95
2023-02-09T03:43:51.120Z,29.33
2023-02-09T03:46:15.784Z,34.00
2023-02-09T03:48:40.385Z,41.67
2023-02-09T03:51:07.257Z,40.65
2023-02-09T03:53:31.716Z,39.30
2023-02-09T03:55:56.379Z,34.65
2023-02-09T03:58:20.886Z,41.28
2023-02-09T04:00:46.614Z,41.75
2023-02-09T04:03:11.269Z,40.97
2023-02-09T04:05:36.198Z,40.97
2023-02-09T04:08:02.212Z,43.92
2023-02-09T04:10:26.866Z,49.63
2023-02-09T04:12:51.363Z,44.97
2023-02-09T04:15:16.007Z,57.63
2023-02-09T04:17:40.500Z,45.95
2023-02-09T04:20:05.771Z,58.65
2023-02-09T04:22:30.257Z,53.67
2023-02-09T04:24:57.236Z,56.05
2023-02-09T04:27:22.090Z,59.05
2023-02-09T04:29:47.785Z,56.15
2023-02-09T04:32:12.611Z,65.88
2023-02-09T04:34:37.476Z,72.22
2023-02-09T04:37:02.063Z,58.15
2023-02-09T04:39:26.697Z,59.28
2023-02-09T04:41:52.705Z,60.67
2023-02-09T04:44:17.188Z,66.30
2023-02-09T04:46:42.125Z,65.68
2023-02-09T04:49:07.596Z,69.68
2023-02-09T04:51:32.161Z,62.75
2023-02-09T04:53:56.888Z,74.20
2023-02-09T04:56:21.582Z,67.43
2023-02-09T04:59:05.086Z,78.43
2023-02-09T05:01:30.046Z,80.57
2023-02-09T05:03:55.141Z,78.45
2023-02-09T05:06:20.415Z,84.70
2023-02-09T05:08:45.644Z,88.50
2023-02-09T05:11:10.546Z,87.50
2023-02-09T05:13:35.449Z,92.88
2023-02-09T05:16:01.361Z,90.78
2023-02-09T05:18:26.548Z,80.05
2023-02-09T05:20:51.468Z,85.15
2023-02-09T05:23:16.253Z,100.40
2023-02-09T05:25:41.153Z,87.43
2023-02-09T05:28:06.310Z,91.68
2023-02-09T05:30:31.697Z,85.30
2023-02-09T05:32:58.016Z,79.30
2023-02-09T05:35:22.735Z,76.78
2023-02-09T05:37:47.419Z,75.55
2023-02-09T05:40:13.936Z,65.35
2023-02-09T05:42:38.696Z,65.32
2023-02-09T05:45:03.332Z,74.88
2023-02-09T05:47:29.838Z,62.55
2023-02-09T05:49:55.888Z,64.70
2023-02-09T05:52:21.409Z,60.67
2023-02-09T05:54:46.157Z,58.90
2023-02-09T05:57:11.468Z,51.30
2023-02-09T05:59:36.269Z,60.20
2023-02-09T06:02:01.497Z,60.33
2023-02-09T06:04:26.670Z,58.67
2023-02-09T06:06:53.136Z,53.85
2023-02-09T06:09:19.459Z,63.95
2023-02-09T06:11:44.023Z,52.42
2023-02-09T06:14:08.615Z,41.80
2023-02-09T06:16:33.358Z,49.42
2023-02-09T06:18:58.032Z,47.88
2023-02-09T06:21:22.602Z,49.75
2023-02-09T06:23:48.753Z,52.40
2023-02-09T06:26:15.801Z,46.03
2023-02-09T06:28:41.030Z,47.60
2023-02-09T06:31:06.278Z,43.15
2023-02-09T06:33:31.181Z,40.90
2023-02-09T06:35:55.797Z,39.50
2023-02-09T06:38:20.402Z,41.75
2023-02-09T06:40:47.396Z,42.60
2023-02-09T06:43:12.173Z,43.42
2023-02-09T06:45:40.613Z,41.47
2023-02-09T06:48:06.368Z,44.88
2023-02-09T06:50:31.120Z,45.08
2023-02-09T06:52:55.872Z,40.63
2023-02-09T06:55:20.590Z,35.83
2023-02-09T06:57:46.828Z,44.05
2023-02-09T07:00:13.031Z,43.88
2023-02-09T07:02:37.666Z,37.47
2023-02-09T07:05:02.230Z,38.45
2023-02-09T07:07:28.565Z,40.63
2023-02-09T07:09:53.436Z,32.80
2023-02-09T07:12:18.223Z,38.28
2023-02-09T07:14:46.016Z,35.80
2023-02-09T07:17:10.641Z,32.72
2023-02-09T07:19:35.228Z,33.83
2023-02-09T07:21:59.818Z,33.72
2023-02-09T07:24:24.798Z,43.53
2023-02-09T07:26:49.382Z,29.88
2023-02-09T07:29:13.949Z,31.88
2023-02-09T07:31:40.501Z,33.40
2023-02-09T07:34:05.423Z,36.38
2023-02-09T07:36:30.442Z,32.95
2023-02-09T07:39:00.197Z,35.85
2023-02-09T07:41:27.915Z,34.65
2023-02-09T07:43:54.309Z,34.97
2023-02-09T07:46:25.848Z,33.92
2023-02-09T07:48:55.457Z,34.20
2023-02-09T07:51:55.301Z,34.10
2023-02-09T07:54:52.522Z,31.75
2023-02-09T07:57:32.127Z,34.58
2023-02-09T07:59:57.970Z,30.85
2023-02-09T08:02:48.982Z,31.00
2023-02-09T08:05:24.150Z,30.05
2023-02-09T08:07:50.149Z,36.35
2023-02-09T08:10:26.674Z,29.48
2023-02-09T08:13:01.067Z,28.63
2023-02-09T08:15:26.450Z,31.05
2023-02-09T08:17:54.372Z,28.08
2023-02-09T08:20:25.051Z,27.63
2023-02-09T08:22:57.492Z,30.02
2023-02-09T08:25:23.872Z,27.55
2023-02-09T08:27:49.085Z,26.88
2023-02-09T08:30:20.947Z,25.25
2023-02-09T08:32:56.869Z,25.45
2023-02-09T08:35:24.045Z,27.02
2023-02-09T08:37:51.398Z,25.58
2023-02-09T08:40:24.197Z,23.27
2023-02-09T08:42:49.082Z,19.85
2023-02-09T08:45:13.788Z,16.70
2023-02-09T08:47:38.998Z,20.02
2023-02-09T08:50:03.977Z,13.90
2023-02-09T08:52:30.095Z,19.95
2023-02-09T08:54:54.724Z,21.10
2023-02-09T08:57:19.268Z,25.92
2023-02-09T08:59:44.028Z,20.17
2023-02-09T09:02:08.652Z,22.80
2023-02-09T09:04:33.608Z,18.23
2023-02-09T09:06:58.304Z,18.42
2023-02-09T09:09:25.000Z,24.52
2023-02-09T09:11:49.990Z,32.53
2023-02-09T09:14:14.639Z,22.80
2023-02-09T09:16:39.412Z,22.92
2023-02-09T09:19:06.521Z,23.15
2023-02-09T09:21:31.009Z,15.75
2023-02-09T09:23:55.608Z,21.23
2023-02-09T09:26:21.831Z,16.05
2023-02-09T09:28:47.060Z,23.55
2023-02-09T09:31:12.718Z,19.58
2023-02-09T09:33:37.639Z,23.08
2023-02-09T09:36:03.228Z,21.20
2023-02-09T09:38:27.914Z,17.70
2023-02-09T09:40:52.695Z,20.33
2023-02-09T09:43:26.089Z,23.50
2023-02-09T09:45:51.959Z,20.08
2023-02-09T09:48:24.669Z,21.30
2023-02-09T09:50:50.205Z,20.80
2023-02-09T09:53:19.285Z,21.88
2023-02-09T09:55:46.200Z,16.98
2023-02-09T09:58:20.359Z,20.80
2023-02-09T10:00:44.929Z,24.65
2023-02-09T10:03:16.235Z,21.92
2023-02-09T10:05:41.765Z,28.95
2023-02-09T10:08:13.173Z,26.42
2023-02-09T10:10:43.689Z,25.40
2023-02-09T10:13:17.507Z,30.63
2023-02-09T10:15:49.044Z,31.13
2023-02-09T10:18:17.073Z,25.45
2023-02-09T10:20:45.417Z,24.63
2023-02-09T10:23:17.534Z,25.77
2023-02-09T10:25:54.212Z,27.90
2023-02-09T10:28:23.000Z,29.02
2023-02-09T10:30:53.153Z,29.98
2023-02-09T10:33:17.975Z,26.02
2023-02-09T10:35:46.611Z,26.65
2023-02-09T10:38:18.851Z,30.92
2023-02-09T10:40:44.215Z,23.75
2023-02-09T10:43:25.911Z,30.27
2023-02-09T10:45:57.795Z,25.13
2023-02-09T10:48:24.527Z,31.88
2023-02-09T10:50:51.927Z,28.58
2023-02-09T10:53:22.492Z,21.52
2023-02-09T10:55:47.608Z,25.13
2023-02-09T10:58:22.155Z,24.35
2023-02-09T11:00:52.221Z,27.05
2023-02-09T11:05:48.727Z,24.92
2023-02-09T11:08:19.039Z,33.05
2023-02-09T11:10:51.424Z,27.00
2023-02-09T11:13:22.468Z,24.70
2023-02-09T11:16:00.301Z,24.75
2023-02-09T11:18:30.150Z,29.70
2023-02-09T11:21:00.766Z,28.30
2023-02-09T11:23:40.168Z,28.55
2023-02-09T11:26:10.643Z,39.08
2023-02-09T11:28:48.831Z,32.35
2023-02-09T11:31:51.846Z,65.57
2023-02-09T11:34:51.869Z,42.60
2023-02-09T11:39:55.070Z,30.83
2023-02-09T11:42:43.517Z,34.95
2023-02-09T11:45:12.412Z,35.60
2023-02-09T11:47:50.855Z,40.25
2023-02-09T11:50:25.915Z,29.10
2023-02-09T11:52:54.058Z,39.85
2023-02-09T11:55:29.048Z,34.13
2023-02-09T11:57:59.921Z,39.75
2023-02-09T12:00:29.169Z,31.85
2023-02-09T12:03:00.732Z,33.10
2023-02-09T12:05:28.217Z,37.45
2023-02-09T12:08:15.843Z,38.10
2023-02-09T12:10:46.675Z,36.25
2023-02-09T12:13:27.357Z,42.95
2023-02-09T12:15:53.736Z,39.78
2023-02-09T12:18:21.302Z,49.70
2023-02-09T12:20:55.882Z,33.20
2023-02-09T12:23:32.028Z,40.33
2023-02-09T12:26:00.020Z,33.40
2023-02-09T12:28:45.166Z,32.65
2023-02-09T12:31:28.470Z,32.30
2023-02-09T12:34:21.867Z,38.80
2023-02-09T12:37:28.472Z,31.23
2023-02-09T12:40:22.935Z,34.88
2023-02-09T12:43:04.292Z,33.10
2023-02-09T12:45:37.025Z,31.05
2023-02-09T12:48:12.610Z,28.65
2023-02-09T12:50:52.464Z,30.80
2023-02-09T12:53:47.168Z,35.55
2023-02-09T12:56:33.682Z,34.97
2023-02-09T12:59:14.375Z,29.23
2023-02-09T13:02:06.191Z,35.83
2023-02-09T13:04:36.306Z,41.20
2023-02-09T13:07:04.216Z,40.55
2023-02-09T13:09:36.569Z,35.97
2023-02-09T13:12:11.729Z,30.23
2023-02-09T13:14:38.839Z,30.98
2023-02-09T13:17:29.421Z,37.53
2023-02-09T13:20:16.906Z,34.30
2023-02-09T13:22:54.444Z,39.08
2023-02-09T13:25:30.013Z,42.78
2023-02-09T13:27:55.573Z,41.58
2023-02-09T13:30:28.062Z,36.47
2023-02-09T13:33:03.055Z,42.20
2023-02-09T13:35:32.033Z,46.47
2023-02-09T13:37:58.474Z,49.70
2023-02-09T13:40:26.687Z,38.65
2023-02-09T13:43:00.524Z,35.70
2023-02-09T13:45:28.276Z,36.60
2023-02-09T13:47:53.157Z,37.65
2023-02-09T13:50:20.524Z,47.60
2023-02-09T13:52:45.393Z,42.38
2023-02-09T13:55:13.072Z,39.15
2023-02-09T13:57:42.167Z,39.25
2023-02-09T14:00:15.119Z,39.00
2023-02-09T14:02:50.430Z,40.63
2023-02-09T14:05:26.705Z,37.47
2023-02-09T14:07:52.588Z,50.83
2023-02-09T14:10:19.968Z,34.83
2023-02-09T14:12:56.523Z,38.45
2023-02-09T14:15:41.780Z,35.95
2023-02-09T14:18:33.555Z,26.83
2023-02-09T14:21:10.744Z,34.80
2023-02-09T14:23:50.398Z,31.60
2023-02-09T14:26:30.215Z,25.80
2023-02-09T14:29:08.556Z,31.98
2023-02-09T14:31:37.948Z,32.78
2023-02-09T14:34:03.448Z,28.63
2023-02-09T14:36:34.725Z,25.35
2023-02-09T14:39:13.648Z,28.70
2023-02-09T14:41:43.070Z,30.97
2023-02-09T14:44:22.044Z,29.83
2023-02-09T14:46:51.984Z,34.40
2023-02-09T14:51:41.459Z,26.77
2023-02-09T14:54:19.172Z,29.50
2023-02-09T14:56:44.105Z,31.73
2023-02-09T14:59:12.338Z,32.03
2023-02-09T15:01:38.747Z,33.80
2023-02-09T15:04:03.317Z,36.97
2023-02-09T15:06:33.114Z,33.28
2023-02-09T15:08:57.701Z,28.63
2023-02-09T15:11:42.881Z,25.73
2023-02-09T15:14:09.684Z,24.38
2023-02-09T15:16:34.559Z,32.67
2023-02-09T15:19:01.122Z,27.73
2023-02-09T15:21:26.383Z,31.67
2023-02-09T15:23:51.307Z,30.55
2023-02-09T15:26:17.837Z,32.55
2023-02-09T15:28:42.372Z,28.63
2023-02-09T15:31:06.943Z,27.65
2023-02-09T15:33:31.523Z,32.55
2023-02-09T15:35:59.646Z,28.58
2023-02-09T15:38:24.716Z,40.83
2023-02-09T15:41:08.211Z,34.35
2023-02-09T15:43:50.218Z,33.83
2023-02-09T15:46:32.997Z,34.47
2023-02-09T15:48:57.622Z,35.70
2023-02-09T15:51:25.233Z,30.33
2023-02-09T15:53:50.686Z,30.55
2023-02-09T15:56:15.948Z,29.17
2023-02-09T15:58:43.428Z,32.97
2023-02-09T16:01:08.511Z,27.52
2023-02-09T16:03:33.505Z,24.70
2023-02-09T16:06:01.720Z,36.13
2023-02-09T16:08:30.364Z,29.30
2023-02-09T16:10:55.685Z,36.47
2023-02-09T16:13:21.216Z,25.40
2023-02-09T16:15:46.188Z,25.02
2023-02-09T16:18:10.988Z,30.45
2023-02-09T16:20:36.042Z,37.40
2023-02-09T16:23:18.658Z,31.10
2023-02-09T16:25:48.175Z,32.33
2023-02-09T16:28:15.232Z,35.33
2023-02-09T16:30:49.264Z,35.22
2023-02-09T16:33:16.986Z,38.00
2023-02-09T16:35:42.073Z,37.55
2023-02-09T16:38:17.407Z,36.10
2023-02-09T16:40:42.169Z,35.90
2023-02-09T16:43:12.443Z,39.42
2023-02-09T16:45:38.845Z,38.20
2023-02-09T16:48:03.923Z,33.55
2023-02-09T16:50:32.972Z,33.63
2023-02-09T16:52:58.060Z,32.95
2023-02-09T16:55:26.516Z,36.92
2023-02-09T16:57:54.674Z,33.83
2023-02-09T17:00:21.444Z,32.65
2023-02-09T17:02:51.096Z,34.17
2023-02-09T17:05:20.423Z,46.22
2023-02-09T17:07:54.460Z,45.75
2023-02-09T17:10:21.475Z,37.92
2023-02-09T17:12:46.478Z,36.80
2023-02-09T17:15:28.515Z,40.25
2023-02-09T17:17:58.457Z,39.22
2023-02-09T17:22:52.170Z,36.03
2023-02-09T17:25:17.821Z,43.80
2023-02-09T17:27:42.419Z,41.35
2023-02-09T17:30:08.749Z,38.88
2023-02-09T17:32:33.572Z,32.58
2023-02-09T17:34:59.575Z,45.13
2023-02-09T17:37:24.243Z,43.95
2023-02-09T17:39:50.839Z,46.85
2023-02-09T17:42:22.932Z,46.00
2023-02-09T17:44:47.558Z,42.33
2023-02-09T17:47:16.240Z,46.33
2023-02-09T17:49:41.069Z,40.33
2023-02-09T17:52:07.308Z,44.25
2023-02-09T17:54:33.676Z,55.25
2023-02-09T17:56:58.126Z,56.60
2023-02-09T17:59:23.043Z,54.85
2023-02-09T18:01:50.391Z,57.28
2023-02-09T18:04:18.657Z,51.10
2023-02-09T18:06:43.257Z,63.55
2023-02-09T18:09:11.218Z,51.78
2023-02-09T18:12:02.235Z,54.85
2023-02-09T18:14:28.834Z,54.40
2023-02-09T18:16:55.289Z,58.35
2023-02-09T18:19:20.031Z,60.17
2023-02-09T18:21:49.174Z,47.53
2023-02-09T18:24:15.429Z,42.40
2023-02-09T18:26:40.003Z,43.42
2023-02-09T18:29:04.943Z,64.00
2023-02-09T18:31:29.695Z,48.05
2023-02-09T18:33:54.287Z,31.33
2023-02-09T18:36:18.766Z,44.47
2023-02-09T18:38:43.262Z,46.38
2023-02-09T18:41:12.852Z,48.45
2023-02-09T18:43:37.496Z,48.58
2023-02-09T18:46:02.014Z,44.92
2023-02-09T18:48:27.283Z,47.65
2023-02-09T18:50:53.036Z,42.80
2023-02-09T18:53:19.441Z,62.85
2023-02-09T18:55:44.185Z,76.78
2023-02-09T18:58:10.433Z,63.03
2023-02-09T19:00:34.948Z,57.60
2023-02-09T19:03:00.300Z,53.10
2023-02-09T19:05:26.531Z,67.15
2023-02-09T19:07:50.977Z,52.20
2023-02-09T19:10:19.834Z,49.50
2023-02-09T19:12:45.491Z,40.03
2023-02-09T19:15:11.640Z,39.28
2023-02-09T19:17:36.500Z,38.83
2023-02-09T19:20:01.690Z,40.53
2023-02-09T19:22:27.032Z,45.03
2023-02-09T19:24:53.382Z,39.80
2023-02-09T19:27:18.993Z,48.90
2023-02-09T19:29:43.853Z,59.50
2023-02-09T19:32:10.319Z,82.50
2023-02-09T19:34:37.303Z,81.30
2023-02-09T19:37:02.390Z,88.75
2023-02-09T19:39:28.343Z,60.42
2023-02-09T19:41:53.105Z,52.20
2023-02-09T19:44:17.853Z,51.25
2023-02-09T19:46:42.745Z,55.53
2023-02-09T19:49:08.779Z,54.47
2023-02-09T19:51:33.194Z,56.03
2023-02-09T19:53:57.664Z,63.15
2023-02-09T19:56:23.484Z,56.00
2023-02-09T19:58:47.994Z,58.25
2023-02-09T20:01:12.809Z,46.97
2023-02-09T20:03:37.543Z,42.72
2023-02-09T20:06:07.688Z,52.67
2023-02-09T20:08:32.153Z,45.33
2023-02-09T20:10:56.554Z,46.67
2023-02-09T20:15:50.512Z,41.30
2023-02-09T20:18:17.669Z,50.95
2023-02-09T20:20:43.095Z,35.45
2023-02-09T20:23:09.430Z,43.25
2023-02-09T20:25:33.963Z,45.50
2023-02-09T20:27:58.539Z,42.22
2023-02-09T20:30:22.988Z,34.30
2023-02-09T20:32:47.667Z,49.65
2023-02-09T20:35:13.226Z,41.75
2023-02-09T20:37:38.086Z,40.80
2023-02-09T20:40:04.364Z,47.25
2023-02-09T20:42:46.430Z,46.97
2023-02-09T20:45:31.721Z,41.72
2023-02-09T20:47:56.178Z,45.88
2023-02-09T20:50:20.577Z,38.90
2023-02-09T20:52:45.768Z,41.53
2023-02-09T20:55:11.638Z,43.78
2023-02-09T20:57:37.222Z,46.33
2023-02-09T21:00:02.029Z,42.67
2023-02-09T21:02:31.096Z,45.60
2023-02-09T21:04:57.548Z,45.90
2023-02-09T21:07:22.039Z,41.85
2023-02-09T21:09:46.531Z,51.72
2023-02-09T21:12:14.542Z,48.47
2023-02-09T21:14:42.205Z,54.85
2023-02-09T21:17:07.467Z,45.38
2023-02-09T21:19:34.441Z,57.70
2023-02-09T21:21:58.950Z,61.53
2023-02-09T21:24:23.428Z,49.88
2023-02-09T21:26:48.244Z,60.63
2023-02-09T21:29:14.855Z,48.95
2023-02-09T21:31:39.399Z,69.93
2023-02-09T21:34:04.073Z,70.68
2023-02-09T21:36:28.469Z,77.90
2023-02-09T21:38:53.119Z,49.38
2023-02-09T21:41:33.468Z,50.15
2023-02-09T21:43:58.016Z,55.13
2023-02-09T21:46:24.899Z,43.90
2023-02-09T21:48:49.343Z,48.28
2023-02-09T21:51:13.760Z,48.92
2023-02-09T21:53:38.210Z,46.80
2023-02-09T21:56:06.655Z,41.80
2023-02-09T21:58:32.284Z,51.90
2023-02-09T22:00:58.857Z,59.63
2023-02-09T22:03:24.898Z,49.92
2023-02-09T22:05:57.230Z,46.17
2023-02-09T22:08:21.622Z,62.38
2023-02-09T22:10:48.929Z,57.78
2023-02-09T22:13:14.754Z,47.03
2023-02-09T22:15:41.600Z,64.90
2023-02-09T22:18:06.139Z,68.28
2023-02-09T22:20:32.045Z,56.00
2023-02-09T22:22:56.455Z,39.67
2023-02-09T22:25:22.664Z,44.35
2023-02-09T22:27:47.096Z,76.85
2023-02-09T22:30:12.426Z,65.88
2023-02-09T22:32:37.165Z,79.65
2023-02-09T22:35:01.704Z,50.58
2023-02-09T22:37:28.890Z,89.50
2023-02-09T22:39:53.728Z,53.72
2023-02-09T22:42:18.152Z,42.65
2023-02-09T22:44:42.593Z,70.25
2023-02-09T22:47:07.214Z,77.45
2023-02-09T22:49:31.773Z,52.85
2023-02-09T22:51:56.272Z,70.30
2023-02-09T22:54:22.267Z,79.25
2023-02-09T22:56:47.241Z,74.63
2023-02-09T22:59:12.836Z,72.22
2023-02-09T23:01:37.470Z,70.72
2023-02-09T23:04:02.034Z,78.13
2023-02-09T23:06:28.710Z,87.78
2023-02-09T23:08:54.518Z,86.95
2023-02-09T23:11:20.414Z,84.60
2023-02-09T23:13:45.865Z,84.13
2023-02-09T23:16:12.295Z,78.60
2023-02-09T23:18:36.891Z,86.40
2023-02-09T23:21:03.412Z,70.07
2023-02-09T23:23:27.745Z,64.57
2023-02-09T23:25:53.419Z,62.00
2023-02-09T23:28:19.796Z,52.60
2023-02-09T23:30:45.508Z,55.08
2023-02-09T23:33:09.972Z,50.10
2023-02-09T23:35:34.620Z,70.20
2023-02-09T23:37:58.955Z,86.57
2023-02-09T23:40:23.489Z,74.75
2023-02-09T23:42:47.900Z,63.35
2023-02-09T23:45:14.102Z,73.28
2023-02-09T23:47:38.650Z,78.45
2023-02-09T23:50:03.210Z,83.63
2023-02-09T23:52:27.712Z,79.03
2023-02-09T23:54:52.413Z,85.60
2023-02-09T23:57:18.163Z,79.65
2023-02-09T23:59:42.774Z,71.03
